sensor_id;sensor_type;location;lat;lon;timestamp;P1;durP1;ratioP1;P2;durP2;ratioP2
26014;SDS011;13793;55.388;37.844;2023-08-30T00:02:24;32.85;;;21.93;;
26014;SDS011;13793;55.388;37.844;2023-08-30T00:04:58;31.07;;;21.52;;
26014;SDS011;13793;55.388;37.844;2023-08-30T00:07:29;33.20;;;22.48;;
26014;SDS011;13793;55.388;37.844;2023-08-30T00:10:00;32.28;;;21.95;;
26014;SDS011;13793;55.388;37.844;2023-08-30T00:12:32;35.38;;;23.98;;
26014;SDS011;13793;55.388;37.844;2023-08-30T00:15:03;32.70;;;21.55;;
26014;SDS011;13793;55.388;37.844;2023-08-30T00:17:34;33.25;;;23.73;;
26014;SDS011;13793;55.388;37.844;2023-08-30T00:20:05;35.88;;;23.73;;
26014;SDS011;13793;55.388;37.844;2023-08-30T00:22:37;32.25;;;22.48;;
26014;SDS011;13793;55.388;37.844;2023-08-30T00:25:08;34.25;;;23.25;;
26014;SDS011;13793;55.388;37.844;2023-08-30T00:27:38;37.63;;;23.40;;
26014;SDS011;13793;55.388;37.844;2023-08-30T00:30:09;30.95;;;22.00;;
26014;SDS011;13793;55.388;37.844;2023-08-30T00:32:40;36.25;;;23.18;;
26014;SDS011;13793;55.388;37.844;2023-08-30T00:35:11;33.73;;;22.40;;
26014;SDS011;13793;55.388;37.844;2023-08-30T00:37:42;35.73;;;21.68;;
26014;SDS011;13793;55.388;37.844;2023-08-30T00:40:12;31.42;;;21.45;;
26014;SDS011;13793;55.388;37.844;2023-08-30T00:42:43;33.00;;;21.55;;
26014;SDS011;13793;55.388;37.844;2023-08-30T00:45:14;31.57;;;20.52;;
26014;SDS011;13793;55.388;37.844;2023-08-30T00:47:45;32.25;;;21.93;;
26014;SDS011;13793;55.388;37.844;2023-08-30T00:50:16;30.77;;;21.60;;
26014;SDS011;13793;55.388;37.844;2023-08-30T00:52:46;34.98;;;22.58;;
26014;SDS011;13793;55.388;37.844;2023-08-30T00:55:18;33.55;;;22.80;;
26014;SDS011;13793;55.388;37.844;2023-08-30T00:57:48;30.35;;;21.35;;
26014;SDS011;13793;55.388;37.844;2023-08-30T01:00:19;34.83;;;23.05;;
26014;SDS011;13793;55.388;37.844;2023-08-30T01:02:50;40.83;;;25.80;;
26014;SDS011;13793;55.388;37.844;2023-08-30T01:05:21;34.88;;;23.45;;
26014;SDS011;13793;55.388;37.844;2023-08-30T01:07:52;29.70;;;21.25;;
26014;SDS011;13793;55.388;37.844;2023-08-30T01:10:34;33.67;;;22.80;;
26014;SDS011;13793;55.388;37.844;2023-08-30T01:13:05;31.95;;;22.22;;
26014;SDS011;13793;55.388;37.844;2023-08-30T01:15:37;35.00;;;22.37;;
26014;SDS011;13793;55.388;37.844;2023-08-30T01:18:08;30.92;;;21.45;;
26014;SDS011;13793;55.388;37.844;2023-08-30T01:20:39;33.90;;;22.30;;
26014;SDS011;13793;55.388;37.844;2023-08-30T01:23:15;31.50;;;21.50;;
26014;SDS011;13793;55.388;37.844;2023-08-30T01:25:55;32.38;;;23.05;;
26014;SDS011;13793;55.388;37.844;2023-08-30T01:28:45;33.20;;;21.55;;
26014;SDS011;13793;55.388;37.844;2023-08-30T01:31:19;32.00;;;22.82;;
26014;SDS011;13793;55.388;37.844;2023-08-30T01:33:51;32.05;;;22.42;;
26014;SDS011;13793;55.388;37.844;2023-08-30T01:36:23;32.50;;;23.45;;
26014;SDS011;13793;55.388;37.844;2023-08-30T01:38:54;35.03;;;23.32;;
26014;SDS011;13793;55.388;37.844;2023-08-30T01:41:31;33.23;;;22.67;;
26014;SDS011;13793;55.388;37.844;2023-08-30T01:43:57;35.60;;;23.35;;
26014;SDS011;13793;55.388;37.844;2023-08-30T01:46:32;36.00;;;23.70;;
26014;SDS011;13793;55.388;37.844;2023-08-30T01:49:03;40.00;;;25.62;;
26014;SDS011;13793;55.388;37.844;2023-08-30T01:51:35;36.10;;;25.35;;
26014;SDS011;13793;55.388;37.844;2023-08-30T01:54:06;35.03;;;24.67;;
26014;SDS011;13793;55.388;37.844;2023-08-30T01:56:40;35.68;;;23.60;;
26014;SDS011;13793;55.388;37.844;2023-08-30T01:59:11;37.83;;;23.45;;
26014;SDS011;13793;55.388;37.844;2023-08-30T02:01:42;34.78;;;23.47;;
26014;SDS011;13793;55.388;37.844;2023-08-30T02:04:13;35.78;;;23.45;;
26014;SDS011;13793;55.388;37.844;2023-08-30T02:06:54;38.25;;;23.00;;
26014;SDS011;13793;55.388;37.844;2023-08-30T02:10:10;31.05;;;23.27;;
26014;SDS011;13793;55.388;37.844;2023-08-30T02:12:10;33.35;;;22.05;;
26014;SDS011;13793;55.388;37.844;2023-08-30T02:14:47;29.52;;;20.52;;
26014;SDS011;13793;55.388;37.844;2023-08-30T02:17:18;36.63;;;21.77;;
26014;SDS011;13793;55.388;37.844;2023-08-30T02:19:49;35.78;;;21.80;;
26014;SDS011;13793;55.388;37.844;2023-08-30T02:22:21;35.70;;;22.40;;
26014;SDS011;13793;55.388;37.844;2023-08-30T02:24:52;33.95;;;21.73;;
26014;SDS011;13793;55.388;37.844;2023-08-30T02:27:23;36.80;;;23.02;;
26014;SDS011;13793;55.388;37.844;2023-08-30T02:29:53;34.23;;;21.90;;
26014;SDS011;13793;55.388;37.844;2023-08-30T02:32:26;33.38;;;22.60;;
26014;SDS011;13793;55.388;37.844;2023-08-30T02:34:57;35.05;;;22.10;;
26014;SDS011;13793;55.388;37.844;2023-08-30T02:37:29;33.78;;;21.17;;
26014;SDS011;13793;55.388;37.844;2023-08-30T02:40:00;34.73;;;21.62;;
26014;SDS011;13793;55.388;37.844;2023-08-30T02:42:31;30.90;;;22.00;;
26014;SDS011;13793;55.388;37.844;2023-08-30T02:45:02;32.00;;;21.35;;
26014;SDS011;13793;55.388;37.844;2023-08-30T02:47:33;34.65;;;22.37;;
26014;SDS011;13793;55.388;37.844;2023-08-30T02:50:04;30.72;;;20.65;;
26014;SDS011;13793;55.388;37.844;2023-08-30T02:52:35;30.35;;;20.80;;
26014;SDS011;13793;55.388;37.844;2023-08-30T02:55:06;35.65;;;22.20;;
26014;SDS011;13793;55.388;37.844;2023-08-30T02:57:37;33.65;;;21.45;;
26014;SDS011;13793;55.388;37.844;2023-08-30T03:00:08;30.75;;;21.10;;
26014;SDS011;13793;55.388;37.844;2023-08-30T03:02:39;31.75;;;20.45;;
26014;SDS011;13793;55.388;37.844;2023-08-30T03:05:10;31.25;;;20.30;;
26014;SDS011;13793;55.388;37.844;2023-08-30T03:07:40;28.42;;;20.45;;
26014;SDS011;13793;55.388;37.844;2023-08-30T03:10:11;32.38;;;21.55;;
26014;SDS011;13793;55.388;37.844;2023-08-30T03:12:42;34.53;;;22.70;;
26014;SDS011;13793;55.388;37.844;2023-08-30T03:15:13;33.40;;;20.90;;
26014;SDS011;13793;55.388;37.844;2023-08-30T03:17:44;32.15;;;21.07;;
26014;SDS011;13793;55.388;37.844;2023-08-30T03:20:15;30.97;;;21.05;;
26014;SDS011;13793;55.388;37.844;2023-08-30T03:22:45;35.92;;;21.00;;
26014;SDS011;13793;55.388;37.844;2023-08-30T03:25:16;37.15;;;21.27;;
26014;SDS011;13793;55.388;37.844;2023-08-30T03:27:46;35.20;;;21.62;;
26014;SDS011;13793;55.388;37.844;2023-08-30T03:30:17;38.10;;;22.10;;
26014;SDS011;13793;55.388;37.844;2023-08-30T03:32:48;43.45;;;23.90;;
26014;SDS011;13793;55.388;37.844;2023-08-30T03:35:19;38.83;;;22.50;;
26014;SDS011;13793;55.388;37.844;2023-08-30T03:37:51;33.70;;;22.30;;
26014;SDS011;13793;55.388;37.844;2023-08-30T03:40:23;38.48;;;22.02;;
26014;SDS011;13793;55.388;37.844;2023-08-30T03:42:54;45.58;;;25.32;;
26014;SDS011;13793;55.388;37.844;2023-08-30T03:45:24;41.70;;;23.95;;
26014;SDS011;13793;55.388;37.844;2023-08-30T03:47:55;38.48;;;23.87;;
26014;SDS011;13793;55.388;37.844;2023-08-30T03:50:27;41.80;;;24.15;;
26014;SDS011;13793;55.388;37.844;2023-08-30T03:52:58;35.90;;;23.80;;
26014;SDS011;13793;55.388;37.844;2023-08-30T03:55:31;39.78;;;23.40;;
26014;SDS011;13793;55.388;37.844;2023-08-30T03:58:03;39.45;;;24.67;;
26014;SDS011;13793;55.388;37.844;2023-08-30T04:00:37;37.88;;;25.12;;
26014;SDS011;13793;55.388;37.844;2023-08-30T04:03:08;38.88;;;25.48;;
26014;SDS011;13793;55.388;37.844;2023-08-30T04:05:39;40.83;;;25.72;;
26014;SDS011;13793;55.388;37.844;2023-08-30T04:08:10;40.23;;;25.12;;
26014;SDS011;13793;55.388;37.844;2023-08-30T04:10:41;33.45;;;23.25;;
26014;SDS011;13793;55.388;37.844;2023-08-30T04:13:13;35.85;;;23.45;;
26014;SDS011;13793;55.388;37.844;2023-08-30T04:15:44;38.95;;;25.20;;
26014;SDS011;13793;55.388;37.844;2023-08-30T04:18:14;37.60;;;24.98;;
26014;SDS011;13793;55.388;37.844;2023-08-30T04:20:45;39.18;;;25.48;;
26014;SDS011;13793;55.388;37.844;2023-08-30T04:23:16;43.40;;;26.70;;
26014;SDS011;13793;55.388;37.844;2023-08-30T04:25:47;37.48;;;24.40;;
26014;SDS011;13793;55.388;37.844;2023-08-30T04:28:18;33.83;;;23.65;;
26014;SDS011;13793;55.388;37.844;2023-08-30T04:30:49;34.45;;;24.18;;
26014;SDS011;13793;55.388;37.844;2023-08-30T04:33:23;40.43;;;25.65;;
26014;SDS011;13793;55.388;37.844;2023-08-30T04:35:54;35.60;;;24.27;;
26014;SDS011;13793;55.388;37.844;2023-08-30T04:38:26;33.73;;;22.55;;
26014;SDS011;13793;55.388;37.844;2023-08-30T04:40:58;37.25;;;23.07;;
26014;SDS011;13793;55.388;37.844;2023-08-30T04:43:30;34.08;;;22.73;;
26014;SDS011;13793;55.388;37.844;2023-08-30T04:46:01;30.88;;;22.17;;
26014;SDS011;13793;55.388;37.844;2023-08-30T04:48:32;33.85;;;22.15;;
26014;SDS011;13793;55.388;37.844;2023-08-30T04:51:03;30.23;;;21.15;;
26014;SDS011;13793;55.388;37.844;2023-08-30T04:53:35;29.45;;;19.87;;
26014;SDS011;13793;55.388;37.844;2023-08-30T04:56:12;31.75;;;21.52;;
26014;SDS011;13793;55.388;37.844;2023-08-30T05:01:13;26.62;;;19.67;;
26014;SDS011;13793;55.388;37.844;2023-08-30T05:03:46;33.20;;;20.88;;
26014;SDS011;13793;55.388;37.844;2023-08-30T05:06:17;28.80;;;20.30;;
26014;SDS011;13793;55.388;37.844;2023-08-30T05:08:47;29.15;;;19.67;;
26014;SDS011;13793;55.388;37.844;2023-08-30T05:11:18;27.15;;;20.32;;
26014;SDS011;13793;55.388;37.844;2023-08-30T05:13:49;29.63;;;20.55;;
26014;SDS011;13793;55.388;37.844;2023-08-30T05:16:20;29.40;;;19.95;;
26014;SDS011;13793;55.388;37.844;2023-08-30T05:18:52;27.00;;;20.00;;
26014;SDS011;13793;55.388;37.844;2023-08-30T05:21:22;26.37;;;19.85;;
26014;SDS011;13793;55.388;37.844;2023-08-30T05:23:54;25.65;;;20.00;;
26014;SDS011;13793;55.388;37.844;2023-08-30T05:26:25;24.92;;;18.65;;
26014;SDS011;13793;55.388;37.844;2023-08-30T05:28:57;25.25;;;19.85;;
26014;SDS011;13793;55.388;37.844;2023-08-30T05:31:27;30.35;;;22.35;;
26014;SDS011;13793;55.388;37.844;2023-08-30T05:34:03;30.50;;;22.17;;
26014;SDS011;13793;55.388;37.844;2023-08-30T05:36:50;27.93;;;21.75;;
26014;SDS011;13793;55.388;37.844;2023-08-30T05:39:25;27.25;;;21.90;;
26014;SDS011;13793;55.388;37.844;2023-08-30T05:41:58;27.30;;;21.05;;
26014;SDS011;13793;55.388;37.844;2023-08-30T05:44:29;26.87;;;19.82;;
26014;SDS011;13793;55.388;37.844;2023-08-30T05:47:00;26.45;;;20.15;;
26014;SDS011;13793;55.388;37.844;2023-08-30T05:49:31;27.13;;;21.00;;
26014;SDS011;13793;55.388;37.844;2023-08-30T05:52:02;28.20;;;20.40;;
26014;SDS011;13793;55.388;37.844;2023-08-30T05:54:33;24.40;;;19.05;;
26014;SDS011;13793;55.388;37.844;2023-08-30T05:57:04;24.43;;;19.00;;
26014;SDS011;13793;55.388;37.844;2023-08-30T05:59:35;26.68;;;19.67;;
26014;SDS011;13793;55.388;37.844;2023-08-30T06:02:06;25.30;;;18.85;;
26014;SDS011;13793;55.388;37.844;2023-08-30T06:04:39;23.83;;;19.37;;
26014;SDS011;13793;55.388;37.844;2023-08-30T06:07:11;26.27;;;18.60;;
26014;SDS011;13793;55.388;37.844;2023-08-30T06:09:41;23.40;;;18.25;;
26014;SDS011;13793;55.388;37.844;2023-08-30T06:12:12;23.50;;;18.65;;
26014;SDS011;13793;55.388;37.844;2023-08-30T06:14:43;19.98;;;16.73;;
26014;SDS011;13793;55.388;37.844;2023-08-30T06:17:15;21.87;;;17.40;;
26014;SDS011;13793;55.388;37.844;2023-08-30T06:19:45;25.23;;;18.15;;
26014;SDS011;13793;55.388;37.844;2023-08-30T06:22:19;23.52;;;17.80;;
26014;SDS011;13793;55.388;37.844;2023-08-30T06:24:49;21.25;;;17.77;;
26014;SDS011;13793;55.388;37.844;2023-08-30T06:27:20;22.25;;;17.27;;
26014;SDS011;13793;55.388;37.844;2023-08-30T06:29:52;20.02;;;16.50;;
26014;SDS011;13793;55.388;37.844;2023-08-30T06:32:23;21.30;;;16.50;;
26014;SDS011;13793;55.388;37.844;2023-08-30T06:34:57;24.60;;;17.95;;
26014;SDS011;13793;55.388;37.844;2023-08-30T06:37:29;21.07;;;17.65;;
26014;SDS011;13793;55.388;37.844;2023-08-30T06:39:59;20.48;;;17.23;;
26014;SDS011;13793;55.388;37.844;2023-08-30T06:42:32;22.42;;;16.42;;
26014;SDS011;13793;55.388;37.844;2023-08-30T06:45:02;23.02;;;18.17;;
26014;SDS011;13793;55.388;37.844;2023-08-30T06:47:34;19.85;;;16.45;;
26014;SDS011;13793;55.388;37.844;2023-08-30T06:50:05;24.63;;;18.12;;
26014;SDS011;13793;55.388;37.844;2023-08-30T06:52:38;23.92;;;16.87;;
26014;SDS011;13793;55.388;37.844;2023-08-30T06:55:08;21.42;;;16.73;;
26014;SDS011;13793;55.388;37.844;2023-08-30T06:57:39;19.40;;;15.30;;
26014;SDS011;13793;55.388;37.844;2023-08-30T07:00:10;21.40;;;14.87;;
26014;SDS011;13793;55.388;37.844;2023-08-30T07:02:42;16.60;;;14.28;;
26014;SDS011;13793;55.388;37.844;2023-08-30T07:05:14;19.15;;;13.90;;
26014;SDS011;13793;55.388;37.844;2023-08-30T07:07:45;14.53;;;11.97;;
26014;SDS011;13793;55.388;37.844;2023-08-30T07:10:16;18.10;;;13.25;;
26014;SDS011;13793;55.388;37.844;2023-08-30T07:12:49;18.27;;;12.23;;
26014;SDS011;13793;55.388;37.844;2023-08-30T07:15:19;15.53;;;11.83;;
26014;SDS011;13793;55.388;37.844;2023-08-30T07:17:50;14.00;;;11.08;;
26014;SDS011;13793;55.388;37.844;2023-08-30T07:20:21;16.07;;;11.73;;
26014;SDS011;13793;55.388;37.844;2023-08-30T07:22:51;14.25;;;10.58;;
26014;SDS011;13793;55.388;37.844;2023-08-30T07:25:22;13.45;;;10.00;;
26014;SDS011;13793;55.388;37.844;2023-08-30T07:27:53;11.12;;;9.63;;
26014;SDS011;13793;55.388;37.844;2023-08-30T07:30:24;13.75;;;10.20;;
26014;SDS011;13793;55.388;37.844;2023-08-30T07:32:55;11.95;;;9.38;;
26014;SDS011;13793;55.388;37.844;2023-08-30T07:35:25;10.38;;;8.80;;
26014;SDS011;13793;55.388;37.844;2023-08-30T07:37:56;10.53;;;9.43;;
26014;SDS011;13793;55.388;37.844;2023-08-30T07:40:27;12.10;;;9.35;;
26014;SDS011;13793;55.388;37.844;2023-08-30T07:42:57;12.23;;;9.40;;
26014;SDS011;13793;55.388;37.844;2023-08-30T07:45:28;11.48;;;9.68;;
26014;SDS011;13793;55.388;37.844;2023-08-30T07:47:59;11.40;;;8.40;;
26014;SDS011;13793;55.388;37.844;2023-08-30T07:50:29;10.85;;;8.28;;
26014;SDS011;13793;55.388;37.844;2023-08-30T07:53:00;8.43;;;7.62;;
26014;SDS011;13793;55.388;37.844;2023-08-30T07:55:31;7.95;;;6.95;;
26014;SDS011;13793;55.388;37.844;2023-08-30T07:58:02;7.80;;;7.00;;
26014;SDS011;13793;55.388;37.844;2023-08-30T08:00:33;8.65;;;6.72;;
26014;SDS011;13793;55.388;37.844;2023-08-30T08:03:04;8.33;;;6.65;;
26014;SDS011;13793;55.388;37.844;2023-08-30T08:05:35;10.68;;;7.25;;
26014;SDS011;13793;55.388;37.844;2023-08-30T08:08:06;8.78;;;7.20;;
26014;SDS011;13793;55.388;37.844;2023-08-30T08:10:36;9.55;;;6.87;;
26014;SDS011;13793;55.388;37.844;2023-08-30T08:13:07;7.30;;;6.60;;
26014;SDS011;13793;55.388;37.844;2023-08-30T08:15:38;7.65;;;6.72;;
26014;SDS011;13793;55.388;37.844;2023-08-30T08:18:10;11.85;;;7.75;;
26014;SDS011;13793;55.388;37.844;2023-08-30T08:20:41;9.98;;;6.87;;
26014;SDS011;13793;55.388;37.844;2023-08-30T08:23:12;8.10;;;7.00;;
26014;SDS011;13793;55.388;37.844;2023-08-30T08:25:43;9.83;;;6.78;;
26014;SDS011;13793;55.388;37.844;2023-08-30T08:28:14;8.68;;;6.95;;
26014;SDS011;13793;55.388;37.844;2023-08-30T08:30:46;7.70;;;6.97;;
26014;SDS011;13793;55.388;37.844;2023-08-30T08:33:18;9.75;;;7.22;;
26014;SDS011;13793;55.388;37.844;2023-08-30T08:35:50;8.18;;;7.00;;
26014;SDS011;13793;55.388;37.844;2023-08-30T08:38:21;9.78;;;6.78;;
26014;SDS011;13793;55.388;37.844;2023-08-30T08:41:01;8.13;;;6.65;;
26014;SDS011;13793;55.388;37.844;2023-08-30T08:43:29;7.97;;;6.25;;
26014;SDS011;13793;55.388;37.844;2023-08-30T08:46:02;12.35;;;6.80;;
26014;SDS011;13793;55.388;37.844;2023-08-30T08:48:39;8.83;;;7.08;;
26014;SDS011;13793;55.388;37.844;2023-08-30T08:51:09;8.55;;;7.08;;
26014;SDS011;13793;55.388;37.844;2023-08-30T08:53:41;7.80;;;7.08;;
26014;SDS011;13793;55.388;37.844;2023-08-30T08:56:12;9.03;;;6.92;;
26014;SDS011;13793;55.388;37.844;2023-08-30T08:58:43;11.95;;;7.08;;
26014;SDS011;13793;55.388;37.844;2023-08-30T09:01:15;7.87;;;6.35;;
26014;SDS011;13793;55.388;37.844;2023-08-30T09:03:48;9.45;;;6.60;;
26014;SDS011;13793;55.388;37.844;2023-08-30T09:06:19;9.68;;;6.47;;
26014;SDS011;13793;55.388;37.844;2023-08-30T09:08:51;8.43;;;6.50;;
26014;SDS011;13793;55.388;37.844;2023-08-30T09:11:22;12.03;;;6.50;;
26014;SDS011;13793;55.388;37.844;2023-08-30T09:13:53;8.03;;;7.05;;
26014;SDS011;13793;55.388;37.844;2023-08-30T09:16:24;7.05;;;6.33;;
26014;SDS011;13793;55.388;37.844;2023-08-30T09:19:02;9.23;;;6.40;;
26014;SDS011;13793;55.388;37.844;2023-08-30T09:21:33;6.83;;;6.12;;
26014;SDS011;13793;55.388;37.844;2023-08-30T09:24:04;9.05;;;7.00;;
26014;SDS011;13793;55.388;37.844;2023-08-30T09:26:36;9.75;;;7.30;;
26014;SDS011;13793;55.388;37.844;2023-08-30T09:29:08;8.53;;;7.03;;
26014;SDS011;13793;55.388;37.844;2023-08-30T09:31:38;8.70;;;7.25;;
26014;SDS011;13793;55.388;37.844;2023-08-30T09:34:11;8.03;;;7.17;;
26014;SDS011;13793;55.388;37.844;2023-08-30T09:36:42;8.23;;;7.35;;
26014;SDS011;13793;55.388;37.844;2023-08-30T09:39:14;8.95;;;7.03;;
26014;SDS011;13793;55.388;37.844;2023-08-30T09:41:45;8.88;;;6.65;;
26014;SDS011;13793;55.388;37.844;2023-08-30T09:44:21;7.78;;;5.92;;
26014;SDS011;13793;55.388;37.844;2023-08-30T09:46:56;7.80;;;6.80;;
26014;SDS011;13793;55.388;37.844;2023-08-30T09:49:26;7.12;;;6.30;;
26014;SDS011;13793;55.388;37.844;2023-08-30T09:51:57;7.20;;;6.15;;
26014;SDS011;13793;55.388;37.844;2023-08-30T09:54:29;7.72;;;6.90;;
26014;SDS011;13793;55.388;37.844;2023-08-30T09:57:00;8.53;;;7.25;;
26014;SDS011;13793;55.388;37.844;2023-08-30T09:59:31;7.80;;;7.00;;
26014;SDS011;13793;55.388;37.844;2023-08-30T10:02:02;8.40;;;7.62;;
26014;SDS011;13793;55.388;37.844;2023-08-30T10:04:33;8.48;;;7.67;;
26014;SDS011;13793;55.388;37.844;2023-08-30T10:07:07;8.08;;;7.28;;
26014;SDS011;13793;55.388;37.844;2023-08-30T10:09:39;9.95;;;6.97;;
26014;SDS011;13793;55.388;37.844;2023-08-30T10:12:09;7.83;;;7.12;;
26014;SDS011;13793;55.388;37.844;2023-08-30T10:14:41;9.68;;;8.18;;
26014;SDS011;13793;55.388;37.844;2023-08-30T10:17:12;11.93;;;8.65;;
26014;SDS011;13793;55.388;37.844;2023-08-30T10:19:43;14.05;;;11.35;;
26014;SDS011;13793;55.388;37.844;2023-08-30T10:22:14;10.25;;;8.53;;
26014;SDS011;13793;55.388;37.844;2023-08-30T10:24:51;9.30;;;8.20;;
26014;SDS011;13793;55.388;37.844;2023-08-30T10:27:19;52.10;;;22.95;;
26014;SDS011;13793;55.388;37.844;2023-08-30T10:29:50;10.55;;;8.68;;
26014;SDS011;13793;55.388;37.844;2023-08-30T10:32:23;9.80;;;8.40;;
26014;SDS011;13793;55.388;37.844;2023-08-30T10:34:53;9.83;;;8.78;;
26014;SDS011;13793;55.388;37.844;2023-08-30T10:37:26;9.80;;;8.68;;
26014;SDS011;13793;55.388;37.844;2023-08-30T10:40:00;8.93;;;8.03;;
26014;SDS011;13793;55.388;37.844;2023-08-30T10:42:32;10.00;;;7.65;;
26014;SDS011;13793;55.388;37.844;2023-08-30T10:45:06;9.30;;;8.40;;
26014;SDS011;13793;55.388;37.844;2023-08-30T10:47:38;8.78;;;7.87;;
26014;SDS011;13793;55.388;37.844;2023-08-30T10:50:12;15.95;;;14.18;;
26014;SDS011;13793;55.388;37.844;2023-08-30T10:52:43;8.48;;;7.70;;
26014;SDS011;13793;55.388;37.844;2023-08-30T10:55:16;10.43;;;8.33;;
26014;SDS011;13793;55.388;37.844;2023-08-30T10:57:57;12.93;;;8.80;;
26014;SDS011;13793;55.388;37.844;2023-08-30T11:00:24;10.18;;;8.23;;
26014;SDS011;13793;55.388;37.844;2023-08-30T11:03:11;7.30;;;6.60;;
26014;SDS011;13793;55.388;37.844;2023-08-30T11:05:44;9.65;;;7.92;;
26014;SDS011;13793;55.388;37.844;2023-08-30T11:08:17;8.78;;;7.58;;
26014;SDS011;13793;55.388;37.844;2023-08-30T11:10:51;8.75;;;7.15;;
26014;SDS011;13793;55.388;37.844;2023-08-30T11:13:22;7.62;;;6.83;;
26014;SDS011;13793;55.388;37.844;2023-08-30T11:15:53;11.80;;;7.80;;
26014;SDS011;13793;55.388;37.844;2023-08-30T11:18:25;6.60;;;5.95;;
26014;SDS011;13793;55.388;37.844;2023-08-30T11:20:59;8.68;;;6.00;;
26014;SDS011;13793;55.388;37.844;2023-08-30T11:23:30;8.35;;;6.60;;
26014;SDS011;13793;55.388;37.844;2023-08-30T11:26:01;7.78;;;6.08;;
26014;SDS011;13793;55.388;37.844;2023-08-30T11:28:32;6.17;;;5.67;;
26014;SDS011;13793;55.388;37.844;2023-08-30T11:31:03;6.37;;;5.65;;
26014;SDS011;13793;55.388;37.844;2023-08-30T11:33:34;8.30;;;5.67;;
26014;SDS011;13793;55.388;37.844;2023-08-30T11:36:05;7.03;;;5.58;;
26014;SDS011;13793;55.388;37.844;2023-08-30T11:38:36;9.08;;;5.90;;
26014;SDS011;13793;55.388;37.844;2023-08-30T11:41:08;6.50;;;5.90;;
26014;SDS011;13793;55.388;37.844;2023-08-30T11:43:39;6.47;;;5.80;;
26014;SDS011;13793;55.388;37.844;2023-08-30T11:46:10;5.62;;;5.10;;
26014;SDS011;13793;55.388;37.844;2023-08-30T11:48:41;5.53;;;4.97;;
26014;SDS011;13793;55.388;37.844;2023-08-30T11:51:12;33.45;;;29.52;;
26014;SDS011;13793;55.388;37.844;2023-08-30T11:53:43;9.80;;;8.20;;
26014;SDS011;13793;55.388;37.844;2023-08-30T11:56:15;9.63;;;5.70;;
26014;SDS011;13793;55.388;37.844;2023-08-30T11:58:46;8.33;;;5.40;;
26014;SDS011;13793;55.388;37.844;2023-08-30T12:01:17;5.22;;;4.62;;
26014;SDS011;13793;55.388;37.844;2023-08-30T12:03:49;5.42;;;4.47;;
26014;SDS011;13793;55.388;37.844;2023-08-30T12:06:22;6.03;;;4.62;;
26014;SDS011;13793;55.388;37.844;2023-08-30T12:08:57;7.62;;;4.25;;
26014;SDS011;13793;55.388;37.844;2023-08-30T12:11:27;27.07;;;20.48;;
26014;SDS011;13793;55.388;37.844;2023-08-30T12:14:03;13.58;;;12.15;;
26014;SDS011;13793;55.388;37.844;2023-08-30T12:16:34;6.37;;;4.95;;
26014;SDS011;13793;55.388;37.844;2023-08-30T12:21:47;5.50;;;3.98;;
26014;SDS011;13793;55.388;37.844;2023-08-30T12:24:13;4.58;;;3.40;;
26014;SDS011;13793;55.388;37.844;2023-08-30T12:26:44;4.53;;;3.37;;
26014;SDS011;13793;55.388;37.844;2023-08-30T12:29:14;5.05;;;3.40;;
26014;SDS011;13793;55.388;37.844;2023-08-30T12:31:45;5.12;;;3.75;;
26014;SDS011;13793;55.388;37.844;2023-08-30T12:34:16;4.92;;;3.27;;
26014;SDS011;13793;55.388;37.844;2023-08-30T12:36:47;4.55;;;4.00;;
26014;SDS011;13793;55.388;37.844;2023-08-30T12:39:17;4.72;;;3.10;;
26014;SDS011;13793;55.388;37.844;2023-08-30T12:41:48;4.83;;;3.17;;
26014;SDS011;13793;55.388;37.844;2023-08-30T12:44:19;3.40;;;2.75;;
26014;SDS011;13793;55.388;37.844;2023-08-30T12:46:51;3.98;;;2.62;;
26014;SDS011;13793;55.388;37.844;2023-08-30T12:49:21;3.25;;;2.50;;
26014;SDS011;13793;55.388;37.844;2023-08-30T12:51:52;6.03;;;2.72;;
26014;SDS011;13793;55.388;37.844;2023-08-30T12:54:23;5.12;;;3.10;;
26014;SDS011;13793;55.388;37.844;2023-08-30T12:56:53;5.75;;;3.72;;
26014;SDS011;13793;55.388;37.844;2023-08-30T12:59:24;6.75;;;3.10;;
26014;SDS011;13793;55.388;37.844;2023-08-30T13:01:55;6.22;;;3.67;;
26014;SDS011;13793;55.388;37.844;2023-08-30T13:04:26;5.12;;;2.75;;
26014;SDS011;13793;55.388;37.844;2023-08-30T13:06:57;3.30;;;2.70;;
26014;SDS011;13793;55.388;37.844;2023-08-30T13:09:27;3.92;;;2.72;;
26014;SDS011;13793;55.388;37.844;2023-08-30T13:11:58;4.67;;;2.70;;
26014;SDS011;13793;55.388;37.844;2023-08-30T13:14:29;3.62;;;2.40;;
26014;SDS011;13793;55.388;37.844;2023-08-30T13:17:00;4.78;;;2.55;;
26014;SDS011;13793;55.388;37.844;2023-08-30T13:19:31;4.87;;;3.10;;
26014;SDS011;13793;55.388;37.844;2023-08-30T13:22:02;4.15;;;2.58;;
26014;SDS011;13793;55.388;37.844;2023-08-30T13:24:33;4.20;;;3.05;;
26014;SDS011;13793;55.388;37.844;2023-08-30T13:27:04;40.70;;;29.92;;
26014;SDS011;13793;55.388;37.844;2023-08-30T13:29:35;14.10;;;11.75;;
26014;SDS011;13793;55.388;37.844;2023-08-30T13:32:06;7.05;;;5.47;;
26014;SDS011;13793;55.388;37.844;2023-08-30T13:34:36;4.47;;;3.60;;
26014;SDS011;13793;55.388;37.844;2023-08-30T13:37:08;9.33;;;6.03;;
26014;SDS011;13793;55.388;37.844;2023-08-30T13:39:46;5.12;;;3.55;;
26014;SDS011;13793;55.388;37.844;2023-08-30T13:42:11;5.22;;;2.92;;
26014;SDS011;13793;55.388;37.844;2023-08-30T13:44:44;6.25;;;3.10;;
26014;SDS011;13793;55.388;37.844;2023-08-30T13:47:15;4.55;;;3.02;;
26014;SDS011;13793;55.388;37.844;2023-08-30T13:49:46;5.20;;;2.90;;
26014;SDS011;13793;55.388;37.844;2023-08-30T13:52:16;7.05;;;3.58;;
26014;SDS011;13793;55.388;37.844;2023-08-30T13:54:47;4.85;;;3.20;;
26014;SDS011;13793;55.388;37.844;2023-08-30T13:57:19;6.53;;;3.52;;
26014;SDS011;13793;55.388;37.844;2023-08-30T13:59:52;5.20;;;3.33;;
26014;SDS011;13793;55.388;37.844;2023-08-30T14:02:25;9.28;;;3.98;;
26014;SDS011;13793;55.388;37.844;2023-08-30T14:04:56;5.42;;;3.85;;
26014;SDS011;13793;55.388;37.844;2023-08-30T14:07:27;6.70;;;3.75;;
26014;SDS011;13793;55.388;37.844;2023-08-30T14:09:58;5.50;;;3.62;;
26014;SDS011;13793;55.388;37.844;2023-08-30T14:12:30;5.12;;;3.50;;
26014;SDS011;13793;55.388;37.844;2023-08-30T14:15:02;8.38;;;3.47;;
26014;SDS011;13793;55.388;37.844;2023-08-30T14:17:33;7.90;;;3.58;;
26014;SDS011;13793;55.388;37.844;2023-08-30T14:20:04;7.55;;;4.05;;
26014;SDS011;13793;55.388;37.844;2023-08-30T14:22:35;7.25;;;3.30;;
26014;SDS011;13793;55.388;37.844;2023-08-30T14:25:07;8.88;;;3.45;;
26014;SDS011;13793;55.388;37.844;2023-08-30T14:27:39;6.15;;;3.12;;
26014;SDS011;13793;55.388;37.844;2023-08-30T14:30:10;4.75;;;3.02;;
26014;SDS011;13793;55.388;37.844;2023-08-30T14:32:41;6.08;;;3.27;;
26014;SDS011;13793;55.388;37.844;2023-08-30T14:35:11;6.75;;;3.00;;
26014;SDS011;13793;55.388;37.844;2023-08-30T14:37:42;7.10;;;3.08;;
26014;SDS011;13793;55.388;37.844;2023-08-30T14:40:13;6.28;;;2.83;;
26014;SDS011;13793;55.388;37.844;2023-08-30T14:42:44;4.37;;;2.90;;
26014;SDS011;13793;55.388;37.844;2023-08-30T14:45:19;7.40;;;2.77;;
26014;SDS011;13793;55.388;37.844;2023-08-30T14:47:50;4.35;;;2.98;;
26014;SDS011;13793;55.388;37.844;2023-08-30T14:50:21;5.65;;;2.92;;
26014;SDS011;13793;55.388;37.844;2023-08-30T14:52:51;5.20;;;2.90;;